AirNav   Everest Fuels
 
 855 users online  

8OR5 Pilot Butte Airport
Bend, Oregon, USA

GOING TO BEND?


FAA INFORMATION EFFECTIVE 21 MAY 2020

Location

FAA Identifier: 8OR5
Lat/Long: 44-02-50.4230N 121-16-32.1090W
44-02.840383N 121-16.535150W
44.0473397,-121.2755858
(estimated)
Elevation: 3675 ft. / 1120 m (estimated)
Variation: 18E (1990)
Time zone: UTC -7 (UTC -8 during Standard Time)
Zip code: 97702

Airport Operations

Airport use: Private use. Permission required prior to landing
Activation date: 02/1993
Control tower: no
ARTCC: SEATTLE CENTER
FSS: MC MINNVILLE FLIGHT SERVICE STATION
Attendance: UNATNDD
Wind indicator: yes
Segmented circle: no

Airport Communications

WX AWOS-3 at BDN (4 nm NE): 134.425 (541-382-1477)
WX AWOS-3PT at S21 (13 nm SW): 128.325 (541-593-4623)
WX ASOS at RDM (14 nm NE): 119.025 (541-504-8743)

Nearby radio navigation aids

VOR radial/distance  VOR name  Freq  Var
DSDr156/12.4DESCHUTES VORTAC117.6018E

Airport Services

Runway Information

Runway 18/36

Dimensions: 2400 x 20 ft. / 732 x 6 m
Surface: asphalt
RUNWAY 18  RUNWAY 36
Traffic pattern: leftleft
Obstructions: 60 ft. trees, 400 ft. from runway45 ft. trees, 425 ft. from runway

Airport Ownership and Management from official FAA records

Ownership: Privately-owned
Owner: PILOT BUTTE AIRPORT ASSOC
1928 SE COOPER PLAZA
BEND, OR 97702
Phone (541) 678-7270
OTHER CONTACT DUANE FRANCIS 541-410-4203
Manager: ALAN VALENTI, POINT OF CONTACT
1928 SE COOPER PLAZA
BEND, OR 97702
Phone (541) 678-7270

Airport Operational Statistics

Aircraft based on the field: 9
Single engine airplanes: 8
Ultralights: 1
    

Additional Remarks

PRIVATE AIRPARK, OWNER USE ONLY, NO PERMISSION GRANTED
FOR CD CTC SEATTLE ARTCC AT 253-351-3694.

Instrument Procedures

There are no published instrument procedures at 8OR5.

Some nearby airports with instrument procedures:

KBDN - Bend Municipal Airport (4 nm NE)
S21 - Sunriver Airport (13 nm SW)
KRDM - Roberts Field Airport (14 nm NE)
S39 - Prineville Airport (22 nm NE)
S33 - Madras Municipal Airport (38 nm N)
 
Loc | Ops | Rwys | IFR | FBO | Links
Com | Nav | Svcs | Stats | Notes
Area around 8OR5 (Pilot Butte Airport)
 
Road maps at: MapQuest Bing Google
 
Aerial photo
WARNING: Photo may not be current or correct
Aerial photo of 8OR5 (Pilot Butte Airport)
Photo taken 07-Mar-2014
looking north.

Do you have a better or more recent aerial photo of Pilot Butte Airport that you would like to share? If so, please send us your photo.

 
Sectional chart

 
Airport distance calculator
Flying to Pilot Butte Airport? Find the distance to fly.

From to 8OR5

Sunrise and sunset
Times for 06-Jun-2020
 Local
(UTC-7)
 Zulu
(UTC)
Morning civil twilight04:4811:48
Sunrise05:2412:24
Sunset20:4403:44
Evening civil twilight21:2004:20

Current date and time
Zulu (UTC)  07-Jun-2020 02:22:19
Local (UTC-7)  06-Jun-2020 19:22:19
 
METAR
KBDN 
4nm NE 
070155Z AUTO 33005KT 10SM FEW045 FEW050 FEW075 10/01 A2985 RMK AO2
KS21 
13nm SW 
070155Z AUTO 26011G19KT 10SM SCT027 SCT075 06/M00 A2989 RMK AO2
KRDM 
13nm NE 
070156Z 29021G26KT 10SM BKN075 OVC085 11/M01 A2983 RMK AO2 PK WND 29026/0155 SLP097 T01061006
TAF
KBDN 
4nm NE 
062137Z 0622/0718 36006KT P6SM SCT050 FM070000 29014KT P6SM VCSH BKN040 OVC050 FM070500 23011KT P6SM OVC050 FM071500 24010KT P6SM OVC040
KRDM 
13nm NE 
062136Z 0622/0718 29014KT P6SM VCSH SCT050 BKN070 FM070000 29017G25KT P6SM VCSH BKN050 OVC060 FM070400 30017G24KT P6SM OVC050 FM070900 23015KT P6SM OVC050 FM071500 28014KT P6SM OVC040
NOTAMs
Click for the latest NOTAMs
NOTAMs are issued by the DoD/FAA and will open in a separate window not controlled by AirNav.

 

 
 

Would you like to see your business listed on this page?

 If your business provides an interesting product or service to pilots, flight crews, aircraft, or users of the Pilot Butte Airport, you should consider listing it here.  To start the listing process, click on the button below
 
Add a business
 

Other Pages about Pilot Butte Airport

Update a link
 
Copyright © AirNav, LLC. All rights reserved. Privacy Policy  Contact